createdAt,value
2018-02-22T00:01:37.346Z,25.10
2018-02-22T00:04:05.058Z,22.70
2018-02-22T00:06:32.810Z,21.40
2018-02-22T00:09:00.794Z,23.57
2018-02-22T00:11:28.555Z,28.33
2018-02-22T00:13:56.298Z,27.27
2018-02-22T00:16:24.704Z,23.00
2018-02-22T00:18:52.497Z,24.03
2018-02-22T00:21:20.249Z,20.10
2018-02-22T00:23:47.971Z,20.67
2018-02-22T00:26:15.727Z,23.03
2018-02-22T00:28:43.502Z,25.13
2018-02-22T00:31:11.359Z,73.07
2018-02-22T00:33:39.076Z,70.03
2018-02-22T00:36:06.828Z,47.70
2018-02-22T00:38:35.583Z,22.80
2018-02-22T00:41:03.379Z,22.40
2018-02-22T00:43:31.207Z,22.83
2018-02-22T00:45:58.911Z,22.57
2018-02-22T00:48:26.836Z,22.20
2018-02-22T00:50:54.700Z,27.60
2018-02-22T00:53:23.960Z,31.23
2018-02-22T00:55:52.376Z,20.97
2018-02-22T00:58:21.081Z,22.97
2018-02-22T01:00:48.798Z,20.83
2018-02-22T01:03:17.310Z,21.30
2018-02-22T01:05:45.259Z,19.47
2018-02-22T01:08:13.613Z,22.40
2018-02-22T01:10:41.359Z,20.83
2018-02-22T01:13:09.138Z,19.03
2018-02-22T01:15:36.902Z,18.43
2018-02-22T01:18:04.612Z,18.77
2018-02-22T01:20:32.381Z,21.23
2018-02-22T01:23:00.152Z,19.93
2018-02-22T01:25:28.856Z,20.17
2018-02-22T01:27:56.908Z,19.70
2018-02-22T01:30:24.647Z,23.70
2018-02-22T01:32:52.461Z,21.13
2018-02-22T01:35:20.164Z,20.80
2018-02-22T01:37:47.995Z,19.43
2018-02-22T01:40:15.803Z,19.90
2018-02-22T01:42:43.501Z,21.97
2018-02-22T01:45:11.270Z,21.70
2018-02-22T01:47:39.747Z,20.47
2018-02-22T01:50:07.440Z,21.37
2018-02-22T01:52:35.221Z,19.90
2018-02-22T01:55:03.018Z,22.17
2018-02-22T01:57:30.785Z,20.90
2018-02-22T01:59:58.565Z,19.40
2018-02-22T02:02:26.889Z,19.43
2018-02-22T02:04:54.644Z,18.13
2018-02-22T02:07:23.090Z,18.73
2018-02-22T02:09:50.785Z,18.10
2018-02-22T02:12:18.562Z,18.17
2018-02-22T02:14:47.949Z,19.80
2018-02-22T02:17:17.083Z,19.67
2018-02-22T02:19:44.758Z,19.30
2018-02-22T02:22:12.494Z,18.70
2018-02-22T02:24:41.122Z,17.83
2018-02-22T02:27:08.843Z,20.00
2018-02-22T02:29:37.486Z,19.77
2018-02-22T02:32:05.186Z,19.37
2018-02-22T02:34:33.041Z,17.90
2018-02-22T02:37:00.696Z,20.43
2018-02-22T02:39:28.402Z,19.00
2018-02-22T02:41:56.162Z,17.77
2018-02-22T02:44:23.827Z,19.20
2018-02-22T02:46:51.608Z,17.00
2018-02-22T02:49:19.359Z,21.50
2018-02-22T02:51:47.090Z,19.93
2018-02-22T02:54:14.813Z,19.23
2018-02-22T02:56:42.577Z,19.60
2018-02-22T02:59:10.269Z,20.23
2018-02-22T03:01:39.145Z,19.67
2018-02-22T03:04:06.889Z,20.40
2018-02-22T03:06:35.362Z,17.10
2018-02-22T03:09:04.222Z,19.20
2018-02-22T03:11:31.955Z,17.93
2018-02-22T03:13:59.734Z,17.50
2018-02-22T03:16:28.218Z,17.03
2018-02-22T03:18:56.792Z,16.10
2018-02-22T03:21:25.548Z,17.30
2018-02-22T03:23:54.058Z,17.87
2018-02-22T03:26:21.787Z,18.07
2018-02-22T03:28:49.640Z,17.23
2018-02-22T03:31:18.490Z,18.27
2018-02-22T03:33:47.402Z,18.13
2018-02-22T03:36:15.116Z,17.50
2018-02-22T03:38:44.215Z,16.00
2018-02-22T03:41:11.993Z,18.93
2018-02-22T03:43:39.728Z,18.40
2018-02-22T03:46:08.231Z,17.63
2018-02-22T03:48:37.783Z,18.30
2018-02-22T03:51:05.470Z,18.60
2018-02-22T03:53:33.883Z,17.90
2018-02-22T03:56:02.948Z,18.50
2018-02-22T03:58:35.249Z,18.50
2018-02-22T04:01:03.783Z,17.30
2018-02-22T04:03:31.705Z,17.80
2018-02-22T04:06:01.501Z,20.47
2018-02-22T04:08:30.098Z,17.47
2018-02-22T04:10:57.805Z,19.83
2018-02-22T04:13:28.941Z,18.73
2018-02-22T04:15:58.708Z,18.83
2018-02-22T04:18:27.332Z,19.63
2018-02-22T04:20:55.929Z,20.70
2018-02-22T04:23:24.785Z,17.33
2018-02-22T04:25:53.948Z,18.03
2018-02-22T04:28:25.350Z,19.33
2018-02-22T04:30:54.367Z,20.00
2018-02-22T04:33:23.022Z,18.67
2018-02-22T04:35:51.550Z,19.73
2018-02-22T04:38:20.605Z,19.00
2018-02-22T04:40:49.015Z,16.67
2018-02-22T04:43:16.700Z,17.93
2018-02-22T04:45:45.280Z,19.80
2018-02-22T04:48:13.721Z,18.67
2018-02-22T04:50:41.490Z,19.17
2018-02-22T04:53:12.210Z,18.90
2018-02-22T04:55:39.901Z,19.80
2018-02-22T04:58:07.637Z,16.93
2018-02-22T05:00:35.324Z,18.07
2018-02-22T05:03:03.986Z,19.17
2018-02-22T05:05:32.415Z,19.40
2018-02-22T05:08:00.233Z,18.00
2018-02-22T05:10:27.968Z,19.17
2018-02-22T05:12:59.604Z,19.80
2018-02-22T05:15:28.174Z,17.00
2018-02-22T05:17:55.924Z,17.07
2018-02-22T05:20:25.651Z,17.60
2018-02-22T05:22:54.525Z,18.30
2018-02-22T05:25:23.487Z,17.90
2018-02-22T05:27:51.532Z,17.00
2018-02-22T05:30:20.157Z,16.27
2018-02-22T05:32:47.928Z,15.70
2018-02-22T05:35:15.670Z,18.63
2018-02-22T05:37:47.163Z,20.23
2018-02-22T05:40:15.816Z,17.17
2018-02-22T05:42:43.570Z,19.67
2018-02-22T05:45:11.444Z,18.20
2018-02-22T05:47:39.138Z,14.87
2018-02-22T05:50:06.883Z,17.23
2018-02-22T05:52:34.807Z,18.40
2018-02-22T05:55:02.672Z,18.63
2018-02-22T05:57:30.627Z,16.37
2018-02-22T05:59:58.627Z,18.10
2018-02-22T06:02:27.442Z,17.97
2018-02-22T06:04:56.807Z,17.13
2018-02-22T06:07:24.752Z,16.97
2018-02-22T06:09:53.080Z,18.73
2018-02-22T06:12:24.516Z,18.73
2018-02-22T06:14:52.253Z,20.87
2018-02-22T06:17:19.978Z,22.00
2018-02-22T06:19:47.733Z,18.07
2018-02-22T06:22:16.347Z,17.97
2018-02-22T06:24:44.093Z,16.97
2018-02-22T06:27:13.782Z,19.40
2018-02-22T06:29:42.451Z,18.70
2018-02-22T06:32:10.810Z,17.70
2018-02-22T06:34:38.594Z,17.87
2018-02-22T06:37:09.200Z,18.90
2018-02-22T06:39:37.563Z,17.80
2018-02-22T06:42:07.156Z,16.50
2018-02-22T06:44:36.063Z,15.57
2018-02-22T06:47:04.558Z,16.87
2018-02-22T06:49:33.454Z,17.33
2018-02-22T06:52:01.449Z,18.43
2018-02-22T06:54:30.291Z,15.93
2018-02-22T06:56:57.988Z,16.63
2018-02-22T06:59:27.626Z,15.13
2018-02-22T07:02:00.538Z,15.10
2018-02-22T07:04:32.643Z,15.23
2018-02-22T07:07:00.407Z,14.83
2018-02-22T07:09:28.131Z,15.70
2018-02-22T07:11:55.861Z,14.83
2018-02-22T07:14:23.669Z,16.23
2018-02-22T07:16:58.373Z,13.20
2018-02-22T07:19:26.934Z,16.33
2018-02-22T07:21:54.711Z,15.93
2018-02-22T07:24:22.469Z,15.23
2018-02-22T07:26:50.167Z,13.20
2018-02-22T07:29:22.204Z,12.67
2018-02-22T07:31:50.508Z,14.27
2018-02-22T07:34:20.117Z,15.50
2018-02-22T07:36:58.720Z,14.10
2018-02-22T07:39:27.089Z,14.63
2018-02-22T07:41:56.459Z,14.30
2018-02-22T07:44:24.809Z,14.77
2018-02-22T07:46:56.422Z,15.70
2018-02-22T07:49:24.127Z,14.10
2018-02-22T07:51:51.870Z,14.80
2018-02-22T07:56:54.639Z,14.50
2018-02-22T07:59:27.201Z,14.10
2018-02-22T08:01:55.741Z,14.77
2018-02-22T08:04:23.512Z,15.70
2018-02-22T08:06:52.871Z,15.93
2018-02-22T08:09:20.602Z,15.70
2018-02-22T08:11:48.330Z,13.90
2018-02-22T08:14:16.081Z,14.50
2018-02-22T08:16:44.460Z,14.57
2018-02-22T08:19:12.160Z,16.20
2018-02-22T08:21:39.975Z,16.90
2018-02-22T08:24:08.463Z,15.30
2018-02-22T08:26:37.167Z,14.07
2018-02-22T08:29:04.962Z,14.87
2018-02-22T08:31:34.441Z,15.70
2018-02-22T08:34:04.128Z,16.17
2018-02-22T08:36:34.758Z,15.67
2018-02-22T08:39:03.716Z,14.13
2018-02-22T08:41:31.560Z,16.77
2018-02-22T08:43:59.342Z,16.23
2018-02-22T08:46:31.320Z,16.10
2018-02-22T08:48:59.150Z,15.87
2018-02-22T08:51:26.908Z,17.40
2018-02-22T08:53:54.619Z,16.87
2018-02-22T08:56:22.439Z,16.60
2018-02-22T08:58:50.316Z,17.20
2018-02-22T09:01:18.068Z,15.70
2018-02-22T09:03:45.887Z,15.10
2018-02-22T09:06:13.790Z,16.77
2018-02-22T09:08:41.562Z,16.03
2018-02-22T09:11:09.376Z,17.27
2018-02-22T09:13:37.152Z,16.60
2018-02-22T09:16:06.067Z,17.53
2018-02-22T09:18:33.898Z,16.13
2018-02-22T09:21:01.872Z,15.57
2018-02-22T09:23:29.782Z,17.10
2018-02-22T09:25:57.552Z,18.10
2018-02-22T09:28:25.252Z,14.00
2018-02-22T09:30:53.061Z,14.67
2018-02-22T09:33:20.774Z,16.20
2018-02-22T09:35:48.512Z,16.03
2018-02-22T09:38:16.276Z,16.17
2018-02-22T09:40:44.142Z,18.17
2018-02-22T09:43:11.886Z,12.70
2018-02-22T09:45:39.648Z,17.03
2018-02-22T09:48:08.217Z,15.50
2018-02-22T09:50:35.972Z,17.13
2018-02-22T09:53:03.807Z,17.67
2018-02-22T09:55:31.595Z,18.67
2018-02-22T09:57:59.322Z,17.40
2018-02-22T10:00:27.122Z,15.83
2018-02-22T10:02:55.533Z,18.50
2018-02-22T10:05:23.284Z,16.23
2018-02-22T10:07:51.080Z,15.97
2018-02-22T10:10:21.659Z,16.50
2018-02-22T10:12:49.506Z,18.97
2018-02-22T10:15:17.401Z,16.23
2018-02-22T10:17:45.350Z,15.77
2018-02-22T10:20:13.149Z,15.53
2018-02-22T10:22:40.984Z,16.20
2018-02-22T10:25:09.342Z,18.83
2018-02-22T10:27:37.115Z,16.47
2018-02-22T10:30:04.904Z,18.30
2018-02-22T10:32:32.688Z,16.57
2018-02-22T10:35:00.382Z,17.73
2018-02-22T10:37:28.203Z,17.00
2018-02-22T10:39:56.185Z,16.57
2018-02-22T10:42:23.924Z,17.20
2018-02-22T10:44:51.742Z,15.20
2018-02-22T10:47:19.523Z,18.97
2018-02-22T10:49:47.416Z,18.17
2018-02-22T10:52:15.276Z,18.17
2018-02-22T10:54:43.030Z,17.83
2018-02-22T10:57:10.803Z,16.50
2018-02-22T10:59:39.258Z,15.90
2018-02-22T11:02:12.682Z,16.20
2018-02-22T11:04:40.384Z,15.37
2018-02-22T11:07:08.084Z,18.70
2018-02-22T11:09:35.854Z,17.57
2018-02-22T11:12:03.704Z,18.70
2018-02-22T11:14:31.508Z,16.30
2018-02-22T11:16:59.263Z,13.60
2018-02-22T11:19:27.035Z,19.57
2018-02-22T11:21:54.883Z,17.83
2018-02-22T11:24:22.641Z,16.30
2018-02-22T11:26:51.476Z,16.80
2018-02-22T11:29:19.226Z,17.50
2018-02-22T11:31:47.118Z,18.73
2018-02-22T11:34:14.857Z,16.23
2018-02-22T11:36:42.629Z,17.83
2018-02-22T11:39:10.495Z,17.20
2018-02-22T11:41:38.478Z,16.50
2018-02-22T11:44:06.369Z,15.60
2018-02-22T11:46:34.167Z,14.87
2018-02-22T11:49:02.200Z,18.87
2018-02-22T11:51:30.038Z,16.80
2018-02-22T11:53:57.864Z,16.67
2018-02-22T11:56:25.680Z,21.13
2018-02-22T11:58:53.397Z,20.87
2018-02-22T12:01:21.237Z,16.23
2018-02-22T12:03:49.029Z,16.20
2018-02-22T12:06:19.063Z,17.87
2018-02-22T12:08:47.054Z,17.57
2018-02-22T12:11:15.033Z,16.47
2018-02-22T12:13:44.059Z,17.40
2018-02-22T12:16:11.843Z,16.93
2018-02-22T12:18:39.555Z,16.80
2018-02-22T12:21:07.394Z,15.40
2018-02-22T12:23:35.105Z,16.70
2018-02-22T12:26:02.958Z,17.70
2018-02-22T12:28:30.765Z,16.33
2018-02-22T12:30:58.560Z,16.70
2018-02-22T12:33:27.356Z,17.60
2018-02-22T12:35:55.173Z,17.03
2018-02-22T12:38:22.987Z,17.23
2018-02-22T12:40:50.697Z,15.50
2018-02-22T12:43:18.402Z,17.30
2018-02-22T12:45:46.164Z,18.30
2018-02-22T12:48:13.981Z,16.10
2018-02-22T12:50:41.826Z,19.10
2018-02-22T12:53:09.712Z,17.50
2018-02-22T12:58:30.923Z,16.83
2018-02-22T13:00:58.691Z,17.60
2018-02-22T13:03:26.474Z,16.17
2018-02-22T13:05:54.246Z,17.63
2018-02-22T13:08:21.995Z,18.33
2018-02-22T13:10:49.724Z,17.90
2018-02-22T13:13:17.535Z,18.00
2018-02-22T13:15:45.301Z,17.37
2018-02-22T13:18:13.080Z,20.00
2018-02-22T13:20:40.830Z,17.80
2018-02-22T13:23:08.597Z,18.20
2018-02-22T13:25:36.388Z,19.13
2018-02-22T13:28:04.091Z,17.23
2018-02-22T13:30:31.827Z,18.23
2018-02-22T13:33:11.232Z,19.07
2018-02-22T13:35:39.059Z,17.00
2018-02-22T13:38:18.485Z,16.43
2018-02-22T13:40:46.275Z,15.80
2018-02-22T13:43:13.979Z,19.97
2018-02-22T13:45:41.782Z,17.80
2018-02-22T13:48:09.500Z,18.07
2018-02-22T13:50:49.053Z,18.20
2018-02-22T13:53:16.752Z,18.00
2018-02-22T13:55:44.491Z,18.80
2018-02-22T13:58:12.244Z,18.20
2018-02-22T14:00:51.702Z,19.17
2018-02-22T14:03:19.542Z,17.40
2018-02-22T14:05:47.407Z,17.47
2018-02-22T14:08:26.989Z,18.83
2018-02-22T14:10:54.757Z,17.60
2018-02-22T14:13:22.571Z,18.63
2018-02-22T14:15:50.363Z,18.57
2018-02-22T14:18:18.028Z,19.17
2018-02-22T14:20:46.664Z,20.77
2018-02-22T14:23:14.493Z,18.97
2018-02-22T14:25:42.353Z,18.80
2018-02-22T14:28:10.061Z,17.73
2018-02-22T14:30:37.815Z,17.80
2018-02-22T14:33:05.664Z,20.70
2018-02-22T14:35:33.503Z,21.60
2018-02-22T14:38:01.241Z,16.80
2018-02-22T14:40:29.166Z,17.57
2018-02-22T14:42:56.964Z,17.73
2018-02-22T14:45:24.793Z,18.03
2018-02-22T14:47:52.592Z,18.40
2018-02-22T14:50:20.450Z,20.33
2018-02-22T14:52:48.276Z,18.70
2018-02-22T14:55:16.141Z,19.80
2018-02-22T14:57:43.976Z,20.00
2018-02-22T15:00:11.727Z,17.20
2018-02-22T15:02:39.552Z,12.87
2018-02-22T15:05:07.254Z,17.50
2018-02-22T15:07:35.233Z,16.83
2018-02-22T15:10:03.118Z,18.37
2018-02-22T15:12:30.973Z,19.10
2018-02-22T15:14:58.711Z,18.93
2018-02-22T15:17:26.568Z,18.33
2018-02-22T15:19:54.346Z,20.73
2018-02-22T15:22:22.193Z,18.93
2018-02-22T15:24:49.928Z,18.70
2018-02-22T15:27:17.728Z,19.77
2018-02-22T15:29:45.509Z,20.20
2018-02-22T15:32:13.311Z,18.37
2018-02-22T15:34:41.096Z,17.97
2018-02-22T15:37:08.963Z,17.70
2018-02-22T15:39:36.776Z,20.80
2018-02-22T15:42:05.984Z,19.17
2018-02-22T15:44:33.919Z,20.20
2018-02-22T15:47:01.768Z,18.93
2018-02-22T15:49:29.892Z,18.10
2018-02-22T15:51:58.127Z,16.97
2018-02-22T15:54:27.181Z,18.17
2018-02-22T15:56:55.454Z,18.93
2018-02-22T15:59:23.633Z,18.90
2018-02-22T16:01:51.837Z,21.90
2018-02-22T16:04:19.803Z,19.20
2018-02-22T16:06:47.596Z,20.77
2018-02-22T16:09:15.476Z,19.63
2018-02-22T16:11:43.267Z,17.17
2018-02-22T16:14:11.381Z,19.77
2018-02-22T16:16:39.475Z,19.07
2018-02-22T16:19:07.590Z,18.07
2018-02-22T16:21:35.783Z,18.10
2018-02-22T16:24:04.019Z,22.20
2018-02-22T16:26:31.823Z,19.50
2018-02-22T16:29:00.290Z,19.10
2018-02-22T16:31:29.083Z,19.87
2018-02-22T16:33:57.111Z,20.33
2018-02-22T16:36:25.279Z,18.70
2018-02-22T16:38:53.508Z,18.67
2018-02-22T16:41:21.576Z,20.27
2018-02-22T16:43:49.660Z,17.60
2018-02-22T16:46:17.847Z,18.83
2018-02-22T16:48:48.279Z,18.17
2018-02-22T16:51:17.075Z,20.00
2018-02-22T16:53:46.211Z,20.57
2018-02-22T16:56:14.347Z,19.27
2018-02-22T16:58:42.161Z,20.43
2018-02-22T17:01:10.117Z,29.80
2018-02-22T17:03:38.908Z,21.70
2018-02-22T17:06:06.856Z,20.90
2018-02-22T17:08:34.697Z,20.97
2018-02-22T17:11:03.836Z,21.10
2018-02-22T17:13:31.764Z,20.00
2018-02-22T17:16:00.330Z,20.80
2018-02-22T17:18:28.143Z,18.93
2018-02-22T17:20:55.935Z,23.50
2018-02-22T17:23:24.727Z,18.10
2018-02-22T17:25:58.090Z,20.73
2018-02-22T17:28:31.463Z,19.80
2018-02-22T17:31:04.789Z,19.63
2018-02-22T17:33:33.039Z,19.47
2018-02-22T17:36:02.098Z,21.63
2018-02-22T17:38:31.083Z,21.63
2018-02-22T17:41:00.844Z,20.00
2018-02-22T17:43:30.301Z,20.87
2018-02-22T17:45:58.367Z,22.17
2018-02-22T17:48:26.917Z,20.33
2018-02-22T17:50:55.229Z,20.07
2018-02-22T17:53:25.375Z,19.57
2018-02-22T17:55:54.318Z,20.30
2018-02-22T17:58:22.854Z,19.57
2018-02-22T18:00:52.486Z,18.20
2018-02-22T18:03:21.527Z,20.20
2018-02-22T18:05:50.062Z,17.13
2018-02-22T18:08:18.150Z,18.60
2018-02-22T18:10:46.671Z,21.60
2018-02-22T18:13:15.339Z,21.63
2018-02-22T18:15:44.298Z,20.07
2018-02-22T18:18:15.693Z,17.93
2018-02-22T18:20:44.553Z,18.43
2018-02-22T18:23:12.575Z,17.47
2018-02-22T18:25:41.614Z,20.10
2018-02-22T18:28:09.583Z,18.40
2018-02-22T18:30:37.832Z,17.93
2018-02-22T18:33:06.090Z,18.40
2018-02-22T18:35:34.203Z,17.73
2018-02-22T18:38:03.930Z,18.13
2018-02-22T18:40:37.420Z,20.07
2018-02-22T18:43:12.383Z,18.33
2018-02-22T18:45:40.557Z,16.83
2018-02-22T18:48:09.566Z,20.10
2018-02-22T18:50:37.744Z,20.20
2018-02-22T18:53:05.796Z,19.97
2018-02-22T18:55:33.910Z,18.90
2018-02-22T18:58:03.034Z,18.70
2018-02-22T19:00:31.101Z,19.00
2018-02-22T19:03:00.991Z,21.80
2018-02-22T19:05:29.261Z,18.27
2018-02-22T19:07:57.565Z,19.57
2018-02-22T19:10:26.587Z,18.27
2018-02-22T19:12:54.620Z,18.43
2018-02-22T19:15:22.649Z,18.33
2018-02-22T19:17:50.688Z,18.60
2018-02-22T19:20:18.966Z,20.20
2018-02-22T19:22:48.206Z,19.77
2018-02-22T19:25:16.138Z,17.00
2018-02-22T19:27:44.052Z,16.37
2018-02-22T19:30:12.924Z,17.93
2018-02-22T19:32:42.459Z,19.27
2018-02-22T19:35:11.529Z,17.80
2018-02-22T19:37:41.283Z,17.50
2018-02-22T19:40:11.220Z,16.87
2018-02-22T19:42:39.590Z,20.10
2018-02-22T19:45:07.861Z,18.23
2018-02-22T19:47:37.745Z,20.40
2018-02-22T19:50:06.651Z,18.90
2018-02-22T19:52:35.711Z,17.43
2018-02-22T19:55:05.394Z,18.77
2018-02-22T19:57:34.772Z,19.83
2018-02-22T20:00:03.982Z,20.90
2018-02-22T20:02:32.541Z,21.10
2018-02-22T20:05:01.799Z,19.27
2018-02-22T20:07:31.168Z,20.97
2018-02-22T20:10:03.402Z,19.07
2018-02-22T20:12:32.101Z,21.57
2018-02-22T20:15:01.335Z,19.20
2018-02-22T20:17:31.800Z,22.50
2018-02-22T20:20:01.765Z,22.20
2018-02-22T20:22:32.182Z,19.80
2018-02-22T20:25:00.294Z,19.40
2018-02-22T20:27:29.137Z,22.37
2018-02-22T20:30:00.847Z,18.20
2018-02-22T20:32:31.711Z,21.30
2018-02-22T20:35:02.208Z,19.73
2018-02-22T20:37:31.372Z,20.20
2018-02-22T20:40:03.469Z,21.40
2018-02-22T20:42:33.484Z,20.23
2018-02-22T20:45:01.987Z,19.63
2018-02-22T20:47:31.409Z,21.80
2018-02-22T20:50:01.356Z,20.67
2018-02-22T20:52:32.674Z,19.43
2018-02-22T20:55:17.234Z,19.60
2018-02-22T20:57:45.527Z,20.07
2018-02-22T21:00:15.197Z,19.00
2018-02-22T21:02:45.609Z,20.03
2018-02-22T21:05:17.437Z,18.60
2018-02-22T21:07:46.321Z,21.60
2018-02-22T21:10:17.130Z,20.40
2018-02-22T21:12:46.766Z,19.60
2018-02-22T21:15:16.954Z,20.43
2018-02-22T21:17:46.012Z,20.70
2018-02-22T21:20:15.301Z,21.17
2018-02-22T21:22:46.821Z,20.90
2018-02-22T21:25:16.206Z,22.23
2018-02-22T21:27:46.839Z,22.47
2018-02-22T21:30:18.505Z,17.30
2018-02-22T21:32:48.965Z,19.63
2018-02-22T21:35:18.888Z,19.50
2018-02-22T21:37:47.700Z,20.50
2018-02-22T21:40:21.235Z,20.27
2018-02-22T21:42:50.297Z,20.30
2018-02-22T21:45:19.113Z,20.73
2018-02-22T21:47:47.675Z,20.47
2018-02-22T21:50:17.466Z,19.53
2018-02-22T21:52:46.016Z,19.87
2018-02-22T21:55:17.128Z,20.50
2018-02-22T21:57:45.823Z,19.73
2018-02-22T22:00:13.647Z,21.03
2018-02-22T22:02:41.467Z,20.30
2018-02-22T22:05:09.183Z,20.80
2018-02-22T22:07:36.960Z,19.30
2018-02-22T22:10:08.228Z,20.83
2018-02-22T22:12:36.274Z,20.07
2018-02-22T22:15:03.964Z,18.60
2018-02-22T22:17:32.929Z,22.33
2018-02-22T22:20:01.937Z,20.43
2018-02-22T22:22:30.590Z,21.07
2018-02-22T22:25:00.183Z,20.80
2018-02-22T22:27:28.554Z,20.90
2018-02-22T22:29:56.680Z,19.33
2018-02-22T22:32:24.378Z,19.50
2018-02-22T22:34:52.153Z,20.10
2018-02-22T22:37:19.926Z,21.70
2018-02-22T22:39:47.727Z,23.03
2018-02-22T22:42:15.490Z,20.77
2018-02-22T22:44:44.161Z,20.40
2018-02-22T22:47:12.118Z,22.07
2018-02-22T22:49:40.672Z,21.63
2018-02-22T22:52:09.227Z,23.07
2018-02-22T22:54:37.119Z,21.00
2018-02-22T22:57:04.955Z,20.80
2018-02-22T22:59:32.916Z,22.20
2018-02-22T23:02:00.911Z,21.50
2018-02-22T23:04:28.650Z,20.57
2018-02-22T23:06:56.400Z,23.10
2018-02-22T23:09:24.103Z,20.67
2018-02-22T23:11:51.908Z,21.70
2018-02-22T23:14:19.594Z,22.60
2018-02-22T23:16:47.456Z,22.37
2018-02-22T23:19:15.276Z,22.80
2018-02-22T23:21:43.057Z,21.80
2018-02-22T23:24:10.885Z,20.47
2018-02-22T23:26:42.476Z,20.93
2018-02-22T23:29:12.956Z,21.83
2018-02-22T23:31:40.734Z,20.27
2018-02-22T23:34:08.503Z,22.67
2018-02-22T23:36:37.507Z,21.17
2018-02-22T23:39:06.066Z,22.90
2018-02-22T23:44:35.288Z,20.80
2018-02-22T23:47:03.129Z,21.97
2018-02-22T23:49:30.908Z,21.20
2018-02-22T23:51:58.721Z,21.27
2018-02-22T23:54:26.566Z,23.30
2018-02-22T23:56:54.630Z,24.33
2018-02-22T23:59:26.045Z,21.67
